sensor_id;sensor_type;location;lat;lon;timestamp;P1;durP1;ratioP1;P2;durP2;ratioP2
45344;SDS011;31078;48.304;11.896;2023-07-28T00:01:26;4.35;;;2.60;;
45344;SDS011;31078;48.304;11.896;2023-07-28T00:03:52;4.75;;;2.80;;
45344;SDS011;31078;48.304;11.896;2023-07-28T00:06:19;4.78;;;2.92;;
45344;SDS011;31078;48.304;11.896;2023-07-28T00:08:45;3.83;;;2.72;;
45344;SDS011;31078;48.304;11.896;2023-07-28T00:11:13;4.43;;;2.80;;
45344;SDS011;31078;48.304;11.896;2023-07-28T00:13:41;7.63;;;2.80;;
45344;SDS011;31078;48.304;11.896;2023-07-28T00:16:10;4.68;;;2.85;;
45344;SDS011;31078;48.304;11.896;2023-07-28T00:18:39;4.05;;;2.70;;
45344;SDS011;31078;48.304;11.896;2023-07-28T00:21:05;4.10;;;2.60;;
45344;SDS011;31078;48.304;11.896;2023-07-28T00:23:33;3.67;;;2.60;;
45344;SDS011;31078;48.304;11.896;2023-07-28T00:26:00;5.80;;;2.78;;
45344;SDS011;31078;48.304;11.896;2023-07-28T00:28:26;4.25;;;2.65;;
45344;SDS011;31078;48.304;11.896;2023-07-28T00:30:53;4.38;;;2.78;;
45344;SDS011;31078;48.304;11.896;2023-07-28T00:33:20;3.83;;;2.58;;
45344;SDS011;31078;48.304;11.896;2023-07-28T00:35:47;4.20;;;2.60;;
45344;SDS011;31078;48.304;11.896;2023-07-28T00:38:14;4.25;;;2.80;;
45344;SDS011;31078;48.304;11.896;2023-07-28T00:40:41;5.15;;;2.70;;
45344;SDS011;31078;48.304;11.896;2023-07-28T00:43:07;4.85;;;2.92;;
45344;SDS011;31078;48.304;11.896;2023-07-28T00:45:35;4.18;;;2.63;;
45344;SDS011;31078;48.304;11.896;2023-07-28T00:48:01;4.45;;;2.83;;
45344;SDS011;31078;48.304;11.896;2023-07-28T00:50:31;4.25;;;2.88;;
45344;SDS011;31078;48.304;11.896;2023-07-28T00:52:58;4.53;;;3.00;;
45344;SDS011;31078;48.304;11.896;2023-07-28T00:55:24;5.40;;;2.88;;
45344;SDS011;31078;48.304;11.896;2023-07-28T00:57:51;4.80;;;2.92;;
45344;SDS011;31078;48.304;11.896;2023-07-28T01:00:17;6.13;;;3.08;;
45344;SDS011;31078;48.304;11.896;2023-07-28T01:02:44;4.32;;;2.80;;
45344;SDS011;31078;48.304;11.896;2023-07-28T01:05:11;4.60;;;3.13;;
45344;SDS011;31078;48.304;11.896;2023-07-28T01:07:42;4.47;;;2.90;;
45344;SDS011;31078;48.304;11.896;2023-07-28T01:10:14;4.22;;;2.85;;
45344;SDS011;31078;48.304;11.896;2023-07-28T01:12:47;5.88;;;2.97;;
45344;SDS011;31078;48.304;11.896;2023-07-28T01:15:13;3.85;;;2.80;;
45344;SDS011;31078;48.304;11.896;2023-07-28T01:17:40;5.65;;;3.13;;
45344;SDS011;31078;48.304;11.896;2023-07-28T01:20:07;5.25;;;3.25;;
45344;SDS011;31078;48.304;11.896;2023-07-28T01:22:44;5.60;;;3.28;;
45344;SDS011;31078;48.304;11.896;2023-07-28T01:25:16;4.32;;;2.90;;
45344;SDS011;31078;48.304;11.896;2023-07-28T01:27:48;4.07;;;2.85;;
45344;SDS011;31078;48.304;11.896;2023-07-28T01:30:15;5.18;;;3.47;;
45344;SDS011;31078;48.304;11.896;2023-07-28T01:32:51;5.03;;;2.92;;
45344;SDS011;31078;48.304;11.896;2023-07-28T01:35:19;4.38;;;2.80;;
45344;SDS011;31078;48.304;11.896;2023-07-28T01:37:46;4.57;;;3.00;;
45344;SDS011;31078;48.304;11.896;2023-07-28T01:40:15;4.25;;;2.90;;
45344;SDS011;31078;48.304;11.896;2023-07-28T01:42:42;5.60;;;3.35;;
45344;SDS011;31078;48.304;11.896;2023-07-28T01:45:10;4.93;;;3.05;;
45344;SDS011;31078;48.304;11.896;2023-07-28T01:47:39;6.13;;;3.47;;
45344;SDS011;31078;48.304;11.896;2023-07-28T01:50:06;4.97;;;3.30;;
45344;SDS011;31078;48.304;11.896;2023-07-28T01:52:32;4.88;;;3.22;;
45344;SDS011;31078;48.304;11.896;2023-07-28T01:54:59;5.10;;;3.30;;
45344;SDS011;31078;48.304;11.896;2023-07-28T01:57:26;7.55;;;3.00;;
45344;SDS011;31078;48.304;11.896;2023-07-28T01:59:53;5.10;;;3.22;;
45344;SDS011;31078;48.304;11.896;2023-07-28T02:02:21;5.90;;;3.05;;
45344;SDS011;31078;48.304;11.896;2023-07-28T02:04:47;4.65;;;3.30;;
45344;SDS011;31078;48.304;11.896;2023-07-28T02:07:14;4.90;;;3.22;;
45344;SDS011;31078;48.304;11.896;2023-07-28T02:09:40;4.10;;;2.88;;
45344;SDS011;31078;48.304;11.896;2023-07-28T02:12:07;5.03;;;3.00;;
45344;SDS011;31078;48.304;11.896;2023-07-28T02:14:33;8.75;;;3.40;;
45344;SDS011;31078;48.304;11.896;2023-07-28T02:17:00;4.78;;;2.80;;
45344;SDS011;31078;48.304;11.896;2023-07-28T02:19:28;4.00;;;2.80;;
45344;SDS011;31078;48.304;11.896;2023-07-28T02:21:54;4.40;;;2.85;;
45344;SDS011;31078;48.304;11.896;2023-07-28T02:24:21;3.80;;;2.90;;
45344;SDS011;31078;48.304;11.896;2023-07-28T02:26:47;4.25;;;3.00;;
45344;SDS011;31078;48.304;11.896;2023-07-28T02:29:14;8.43;;;3.00;;
45344;SDS011;31078;48.304;11.896;2023-07-28T02:31:40;6.88;;;2.88;;
45344;SDS011;31078;48.304;11.896;2023-07-28T02:34:07;4.55;;;2.90;;
45344;SDS011;31078;48.304;11.896;2023-07-28T02:36:34;5.82;;;3.10;;
45344;SDS011;31078;48.304;11.896;2023-07-28T02:39:01;6.35;;;3.00;;
45344;SDS011;31078;48.304;11.896;2023-07-28T02:41:27;5.10;;;3.00;;
45344;SDS011;31078;48.304;11.896;2023-07-28T02:43:54;5.75;;;2.70;;
45344;SDS011;31078;48.304;11.896;2023-07-28T02:46:20;4.00;;;2.80;;
45344;SDS011;31078;48.304;11.896;2023-07-28T02:48:47;4.90;;;3.15;;
45344;SDS011;31078;48.304;11.896;2023-07-28T02:51:13;4.57;;;2.60;;
45344;SDS011;31078;48.304;11.896;2023-07-28T02:53:41;3.53;;;2.60;;
45344;SDS011;31078;48.304;11.896;2023-07-28T02:56:08;4.00;;;2.70;;
45344;SDS011;31078;48.304;11.896;2023-07-28T02:58:34;5.00;;;3.05;;
45344;SDS011;31078;48.304;11.896;2023-07-28T03:01:01;5.25;;;3.20;;
45344;SDS011;31078;48.304;11.896;2023-07-28T03:03:27;4.63;;;2.85;;
45344;SDS011;31078;48.304;11.896;2023-07-28T03:05:54;5.13;;;2.88;;
45344;SDS011;31078;48.304;11.896;2023-07-28T03:08:20;7.60;;;3.00;;
45344;SDS011;31078;48.304;11.896;2023-07-28T03:10:48;4.22;;;2.80;;
45344;SDS011;31078;48.304;11.896;2023-07-28T03:13:14;4.35;;;2.78;;
45344;SDS011;31078;48.304;11.896;2023-07-28T03:15:41;3.20;;;2.40;;
45344;SDS011;31078;48.304;11.896;2023-07-28T03:18:07;4.93;;;2.85;;
45344;SDS011;31078;48.304;11.896;2023-07-28T03:20:34;6.30;;;2.83;;
45344;SDS011;31078;48.304;11.896;2023-07-28T03:23:00;4.68;;;2.70;;
45344;SDS011;31078;48.304;11.896;2023-07-28T03:25:27;4.22;;;2.55;;
45344;SDS011;31078;48.304;11.896;2023-07-28T03:27:55;3.10;;;2.30;;
45344;SDS011;31078;48.304;11.896;2023-07-28T03:30:23;3.45;;;2.45;;
45344;SDS011;31078;48.304;11.896;2023-07-28T03:32:50;3.47;;;2.33;;
45344;SDS011;31078;48.304;11.896;2023-07-28T03:35:17;3.75;;;2.75;;
45344;SDS011;31078;48.304;11.896;2023-07-28T03:37:45;3.10;;;2.20;;
45344;SDS011;31078;48.304;11.896;2023-07-28T03:40:12;4.25;;;2.60;;
45344;SDS011;31078;48.304;11.896;2023-07-28T03:42:39;3.72;;;2.58;;
45344;SDS011;31078;48.304;11.896;2023-07-28T03:45:07;7.50;;;2.53;;
45344;SDS011;31078;48.304;11.896;2023-07-28T03:47:34;5.05;;;2.70;;
45344;SDS011;31078;48.304;11.896;2023-07-28T03:50:02;5.30;;;2.53;;
45344;SDS011;31078;48.304;11.896;2023-07-28T03:52:28;4.47;;;2.38;;
45344;SDS011;31078;48.304;11.896;2023-07-28T03:54:55;4.75;;;2.63;;
45344;SDS011;31078;48.304;11.896;2023-07-28T03:57:21;4.40;;;2.58;;
45344;SDS011;31078;48.304;11.896;2023-07-28T03:59:48;4.15;;;2.45;;
45344;SDS011;31078;48.304;11.896;2023-07-28T04:02:15;3.15;;;2.33;;
45344;SDS011;31078;48.304;11.896;2023-07-28T04:04:42;4.78;;;2.58;;
45344;SDS011;31078;48.304;11.896;2023-07-28T04:07:08;4.00;;;2.60;;
45344;SDS011;31078;48.304;11.896;2023-07-28T04:09:35;5.32;;;2.67;;
45344;SDS011;31078;48.304;11.896;2023-07-28T04:12:01;4.35;;;2.50;;
45344;SDS011;31078;48.304;11.896;2023-07-28T04:14:28;3.35;;;2.38;;
45344;SDS011;31078;48.304;11.896;2023-07-28T04:16:55;4.95;;;2.47;;
45344;SDS011;31078;48.304;11.896;2023-07-28T04:19:22;4.28;;;2.60;;
45344;SDS011;31078;48.304;11.896;2023-07-28T04:21:49;4.57;;;2.50;;
45344;SDS011;31078;48.304;11.896;2023-07-28T04:24:17;4.93;;;2.53;;
45344;SDS011;31078;48.304;11.896;2023-07-28T04:26:43;4.20;;;2.15;;
45344;SDS011;31078;48.304;11.896;2023-07-28T04:29:13;3.30;;;2.17;;
45344;SDS011;31078;48.304;11.896;2023-07-28T04:31:40;4.38;;;2.92;;
45344;SDS011;31078;48.304;11.896;2023-07-28T04:34:06;4.22;;;2.17;;
45344;SDS011;31078;48.304;11.896;2023-07-28T04:36:35;3.38;;;2.50;;
45344;SDS011;31078;48.304;11.896;2023-07-28T04:39:01;4.55;;;2.50;;
45344;SDS011;31078;48.304;11.896;2023-07-28T04:41:28;4.35;;;2.80;;
45344;SDS011;31078;48.304;11.896;2023-07-28T04:43:55;7.30;;;2.40;;
45344;SDS011;31078;48.304;11.896;2023-07-28T04:46:22;4.50;;;2.33;;
45344;SDS011;31078;48.304;11.896;2023-07-28T04:48:49;7.55;;;2.58;;
45344;SDS011;31078;48.304;11.896;2023-07-28T04:51:15;4.90;;;3.13;;
45344;SDS011;31078;48.304;11.896;2023-07-28T04:53:43;6.13;;;2.33;;
45344;SDS011;31078;48.304;11.896;2023-07-28T04:56:09;4.38;;;2.80;;
45344;SDS011;31078;48.304;11.896;2023-07-28T04:58:36;4.70;;;2.40;;
45344;SDS011;31078;48.304;11.896;2023-07-28T05:01:02;3.55;;;2.40;;
45344;SDS011;31078;48.304;11.896;2023-07-28T05:03:30;4.38;;;2.65;;
45344;SDS011;31078;48.304;11.896;2023-07-28T05:05:56;3.35;;;2.35;;
45344;SDS011;31078;48.304;11.896;2023-07-28T05:08:23;3.33;;;2.38;;
45344;SDS011;31078;48.304;11.896;2023-07-28T05:10:50;8.32;;;2.63;;
45344;SDS011;31078;48.304;11.896;2023-07-28T05:13:17;3.97;;;2.70;;
45344;SDS011;31078;48.304;11.896;2023-07-28T05:15:43;3.33;;;2.33;;
45344;SDS011;31078;48.304;11.896;2023-07-28T05:18:10;4.50;;;2.50;;
45344;SDS011;31078;48.304;11.896;2023-07-28T05:20:36;4.22;;;2.50;;
45344;SDS011;31078;48.304;11.896;2023-07-28T05:23:03;4.13;;;2.65;;
45344;SDS011;31078;48.304;11.896;2023-07-28T05:25:29;4.53;;;2.50;;
45344;SDS011;31078;48.304;11.896;2023-07-28T05:27:57;5.95;;;2.90;;
45344;SDS011;31078;48.304;11.896;2023-07-28T05:30:24;4.43;;;2.40;;
45344;SDS011;31078;48.304;11.896;2023-07-28T05:32:50;4.85;;;2.70;;
45344;SDS011;31078;48.304;11.896;2023-07-28T05:35:17;5.03;;;2.63;;
45344;SDS011;31078;48.304;11.896;2023-07-28T05:37:45;4.20;;;2.55;;
45344;SDS011;31078;48.304;11.896;2023-07-28T05:40:12;7.18;;;2.50;;
45344;SDS011;31078;48.304;11.896;2023-07-28T05:42:39;4.15;;;2.30;;
45344;SDS011;31078;48.304;11.896;2023-07-28T05:45:07;4.18;;;2.17;;
45344;SDS011;31078;48.304;11.896;2023-07-28T05:47:35;3.67;;;2.42;;
45344;SDS011;31078;48.304;11.896;2023-07-28T05:50:01;5.05;;;2.17;;
45344;SDS011;31078;48.304;11.896;2023-07-28T05:52:28;4.82;;;2.42;;
45344;SDS011;31078;48.304;11.896;2023-07-28T05:54:54;4.05;;;1.95;;
45344;SDS011;31078;48.304;11.896;2023-07-28T05:57:20;5.97;;;2.47;;
45344;SDS011;31078;48.304;11.896;2023-07-28T05:59:47;5.72;;;2.20;;
45344;SDS011;31078;48.304;11.896;2023-07-28T06:02:17;4.13;;;2.65;;
45344;SDS011;31078;48.304;11.896;2023-07-28T06:04:44;3.55;;;2.20;;
45344;SDS011;31078;48.304;11.896;2023-07-28T06:07:10;3.47;;;2.30;;
45344;SDS011;31078;48.304;11.896;2023-07-28T06:09:37;4.45;;;2.53;;
45344;SDS011;31078;48.304;11.896;2023-07-28T06:12:04;5.43;;;2.28;;
45344;SDS011;31078;48.304;11.896;2023-07-28T06:14:31;6.45;;;2.45;;
45344;SDS011;31078;48.304;11.896;2023-07-28T06:16:57;4.78;;;2.78;;
45344;SDS011;31078;48.304;11.896;2023-07-28T06:19:25;4.63;;;2.50;;
45344;SDS011;31078;48.304;11.896;2023-07-28T06:21:52;4.38;;;2.63;;
45344;SDS011;31078;48.304;11.896;2023-07-28T06:24:19;4.13;;;2.33;;
45344;SDS011;31078;48.304;11.896;2023-07-28T06:26:46;5.22;;;2.70;;
45344;SDS011;31078;48.304;11.896;2023-07-28T06:29:12;3.80;;;2.38;;
45344;SDS011;31078;48.304;11.896;2023-07-28T06:31:39;5.50;;;2.42;;
45344;SDS011;31078;48.304;11.896;2023-07-28T06:34:06;5.38;;;2.50;;
45344;SDS011;31078;48.304;11.896;2023-07-28T06:36:34;5.50;;;2.45;;
45344;SDS011;31078;48.304;11.896;2023-07-28T06:39:00;7.97;;;2.58;;
45344;SDS011;31078;48.304;11.896;2023-07-28T06:41:27;6.53;;;2.80;;
45344;SDS011;31078;48.304;11.896;2023-07-28T06:43:53;6.72;;;2.67;;
45344;SDS011;31078;48.304;11.896;2023-07-28T06:46:19;4.32;;;2.70;;
45344;SDS011;31078;48.304;11.896;2023-07-28T06:48:47;5.65;;;2.38;;
45344;SDS011;31078;48.304;11.896;2023-07-28T06:51:13;4.78;;;2.35;;
45344;SDS011;31078;48.304;11.896;2023-07-28T06:53:41;5.70;;;2.60;;
45344;SDS011;31078;48.304;11.896;2023-07-28T06:56:08;4.68;;;2.40;;
45344;SDS011;31078;48.304;11.896;2023-07-28T06:58:34;3.58;;;2.38;;
45344;SDS011;31078;48.304;11.896;2023-07-28T07:01:01;6.88;;;2.90;;
45344;SDS011;31078;48.304;11.896;2023-07-28T07:03:27;5.30;;;2.70;;
45344;SDS011;31078;48.304;11.896;2023-07-28T07:05:53;3.75;;;2.60;;
45344;SDS011;31078;48.304;11.896;2023-07-28T07:08:20;5.90;;;2.60;;
45344;SDS011;31078;48.304;11.896;2023-07-28T07:10:48;5.90;;;2.50;;
45344;SDS011;31078;48.304;11.896;2023-07-28T07:13:16;3.80;;;2.20;;
45344;SDS011;31078;48.304;11.896;2023-07-28T07:15:42;7.82;;;2.60;;
45344;SDS011;31078;48.304;11.896;2023-07-28T07:18:09;3.88;;;2.65;;
45344;SDS011;31078;48.304;11.896;2023-07-28T07:20:36;5.70;;;2.47;;
45344;SDS011;31078;48.304;11.896;2023-07-28T07:23:03;3.30;;;2.40;;
45344;SDS011;31078;48.304;11.896;2023-07-28T07:25:29;5.75;;;2.80;;
45344;SDS011;31078;48.304;11.896;2023-07-28T07:27:57;3.85;;;2.50;;
45344;SDS011;31078;48.304;11.896;2023-07-28T07:30:23;5.50;;;2.38;;
45344;SDS011;31078;48.304;11.896;2023-07-28T07:32:50;5.07;;;2.53;;
45344;SDS011;31078;48.304;11.896;2023-07-28T07:35:16;4.10;;;2.78;;
45344;SDS011;31078;48.304;11.896;2023-07-28T07:37:43;3.70;;;2.35;;
45344;SDS011;31078;48.304;11.896;2023-07-28T07:40:10;4.60;;;2.20;;
45344;SDS011;31078;48.304;11.896;2023-07-28T07:42:42;5.28;;;2.70;;
45344;SDS011;31078;48.304;11.896;2023-07-28T07:45:12;4.57;;;2.40;;
45344;SDS011;31078;48.304;11.896;2023-07-28T07:47:39;5.28;;;2.40;;
45344;SDS011;31078;48.304;11.896;2023-07-28T07:50:06;6.80;;;2.35;;
45344;SDS011;31078;48.304;11.896;2023-07-28T07:52:34;5.78;;;2.35;;
45344;SDS011;31078;48.304;11.896;2023-07-28T07:55:00;6.22;;;2.30;;
45344;SDS011;31078;48.304;11.896;2023-07-28T07:57:27;3.90;;;2.08;;
45344;SDS011;31078;48.304;11.896;2023-07-28T07:59:53;3.85;;;2.20;;
45344;SDS011;31078;48.304;11.896;2023-07-28T08:02:23;3.72;;;2.22;;
45344;SDS011;31078;48.304;11.896;2023-07-28T08:04:51;5.47;;;2.67;;
45344;SDS011;31078;48.304;11.896;2023-07-28T08:07:18;8.10;;;2.75;;
45344;SDS011;31078;48.304;11.896;2023-07-28T08:09:44;4.78;;;2.40;;
45344;SDS011;31078;48.304;11.896;2023-07-28T08:12:12;4.18;;;2.45;;
45344;SDS011;31078;48.304;11.896;2023-07-28T08:14:40;11.07;;;2.60;;
45344;SDS011;31078;48.304;11.896;2023-07-28T08:17:07;5.75;;;2.20;;
45344;SDS011;31078;48.304;11.896;2023-07-28T08:19:36;3.65;;;2.17;;
45344;SDS011;31078;48.304;11.896;2023-07-28T08:22:02;3.38;;;2.30;;
45344;SDS011;31078;48.304;11.896;2023-07-28T08:24:29;4.13;;;2.15;;
45344;SDS011;31078;48.304;11.896;2023-07-28T08:26:56;4.18;;;2.30;;
45344;SDS011;31078;48.304;11.896;2023-07-28T08:29:22;3.33;;;2.10;;
45344;SDS011;31078;48.304;11.896;2023-07-28T08:31:49;4.35;;;2.30;;
45344;SDS011;31078;48.304;11.896;2023-07-28T08:34:15;3.95;;;2.15;;
45344;SDS011;31078;48.304;11.896;2023-07-28T08:36:44;4.03;;;2.10;;
45344;SDS011;31078;48.304;11.896;2023-07-28T08:39:10;4.22;;;2.28;;
45344;SDS011;31078;48.304;11.896;2023-07-28T08:41:37;5.80;;;2.30;;
45344;SDS011;31078;48.304;11.896;2023-07-28T08:44:04;3.30;;;2.20;;
45344;SDS011;31078;48.304;11.896;2023-07-28T08:46:31;3.35;;;2.13;;
45344;SDS011;31078;48.304;11.896;2023-07-28T08:48:59;9.05;;;2.38;;
45344;SDS011;31078;48.304;11.896;2023-07-28T08:51:26;3.83;;;2.17;;
45344;SDS011;31078;48.304;11.896;2023-07-28T08:53:54;5.68;;;2.47;;
45344;SDS011;31078;48.304;11.896;2023-07-28T08:56:20;3.08;;;2.10;;
45344;SDS011;31078;48.304;11.896;2023-07-28T08:58:47;2.83;;;1.92;;
45344;SDS011;31078;48.304;11.896;2023-07-28T09:01:14;3.97;;;2.47;;
45344;SDS011;31078;48.304;11.896;2023-07-28T09:03:40;3.92;;;2.20;;
45344;SDS011;31078;48.304;11.896;2023-07-28T09:06:08;3.03;;;2.13;;
45344;SDS011;31078;48.304;11.896;2023-07-28T09:08:35;4.88;;;2.28;;
45344;SDS011;31078;48.304;11.896;2023-07-28T09:11:04;6.40;;;2.30;;
45344;SDS011;31078;48.304;11.896;2023-07-28T09:13:35;3.05;;;2.15;;
45344;SDS011;31078;48.304;11.896;2023-07-28T09:16:03;5.05;;;2.63;;
45344;SDS011;31078;48.304;11.896;2023-07-28T09:18:30;3.33;;;1.90;;
45344;SDS011;31078;48.304;11.896;2023-07-28T09:20:56;3.85;;;2.30;;
45344;SDS011;31078;48.304;11.896;2023-07-28T09:23:27;4.60;;;2.13;;
45344;SDS011;31078;48.304;11.896;2023-07-28T09:25:58;5.05;;;2.30;;
45344;SDS011;31078;48.304;11.896;2023-07-28T09:28:30;3.08;;;2.00;;
45344;SDS011;31078;48.304;11.896;2023-07-28T09:31:03;3.65;;;2.17;;
45344;SDS011;31078;48.304;11.896;2023-07-28T09:33:30;6.55;;;2.33;;
45344;SDS011;31078;48.304;11.896;2023-07-28T09:36:05;5.05;;;2.15;;
45344;SDS011;31078;48.304;11.896;2023-07-28T09:38:34;4.65;;;2.30;;
45344;SDS011;31078;48.304;11.896;2023-07-28T09:41:03;7.32;;;2.15;;
45344;SDS011;31078;48.304;11.896;2023-07-28T09:43:32;4.03;;;2.22;;
45344;SDS011;31078;48.304;11.896;2023-07-28T09:45:58;5.93;;;2.22;;
45344;SDS011;31078;48.304;11.896;2023-07-28T09:48:26;3.15;;;2.20;;
45344;SDS011;31078;48.304;11.896;2023-07-28T09:50:57;6.95;;;2.00;;
45344;SDS011;31078;48.304;11.896;2023-07-28T09:53:26;3.33;;;2.30;;
45344;SDS011;31078;48.304;11.896;2023-07-28T09:55:54;5.47;;;2.22;;
45344;SDS011;31078;48.304;11.896;2023-07-28T09:58:22;3.00;;;2.03;;
45344;SDS011;31078;48.304;11.896;2023-07-28T10:00:52;4.03;;;2.08;;
45344;SDS011;31078;48.304;11.896;2023-07-28T10:03:19;3.40;;;2.20;;
45344;SDS011;31078;48.304;11.896;2023-07-28T10:05:46;4.13;;;2.20;;
45344;SDS011;31078;48.304;11.896;2023-07-28T10:08:13;4.82;;;2.50;;
45344;SDS011;31078;48.304;11.896;2023-07-28T10:10:41;7.38;;;2.47;;
45344;SDS011;31078;48.304;11.896;2023-07-28T10:13:18;5.38;;;2.38;;
45344;SDS011;31078;48.304;11.896;2023-07-28T10:15:46;3.70;;;2.30;;
45344;SDS011;31078;48.304;11.896;2023-07-28T10:18:15;5.75;;;2.28;;
45344;SDS011;31078;48.304;11.896;2023-07-28T10:20:42;4.78;;;2.33;;
45344;SDS011;31078;48.304;11.896;2023-07-28T10:23:14;6.25;;;2.30;;
45344;SDS011;31078;48.304;11.896;2023-07-28T10:25:42;3.28;;;2.03;;
45344;SDS011;31078;48.304;11.896;2023-07-28T10:28:24;5.18;;;2.22;;
45344;SDS011;31078;48.304;11.896;2023-07-28T10:30:52;4.85;;;2.40;;
45344;SDS011;31078;48.304;11.896;2023-07-28T10:33:29;5.93;;;2.75;;
45344;SDS011;31078;48.304;11.896;2023-07-28T10:35:57;4.20;;;2.30;;
45344;SDS011;31078;48.304;11.896;2023-07-28T10:38:30;12.35;;;2.65;;
45344;SDS011;31078;48.304;11.896;2023-07-28T10:43:44;8.57;;;2.53;;
45344;SDS011;31078;48.304;11.896;2023-07-28T10:46:16;4.60;;;2.42;;
45344;SDS011;31078;48.304;11.896;2023-07-28T10:48:45;2.85;;;2.22;;
45344;SDS011;31078;48.304;11.896;2023-07-28T10:51:19;3.25;;;2.10;;
45344;SDS011;31078;48.304;11.896;2023-07-28T10:53:49;5.45;;;2.47;;
45344;SDS011;31078;48.304;11.896;2023-07-28T10:56:16;5.25;;;2.22;;
45344;SDS011;31078;48.304;11.896;2023-07-28T10:58:42;3.50;;;2.20;;
45344;SDS011;31078;48.304;11.896;2023-07-28T11:01:09;3.55;;;2.63;;
45344;SDS011;31078;48.304;11.896;2023-07-28T11:03:35;4.65;;;2.63;;
45344;SDS011;31078;48.304;11.896;2023-07-28T11:06:04;4.35;;;2.33;;
45344;SDS011;31078;48.304;11.896;2023-07-28T11:08:32;3.15;;;2.03;;
45344;SDS011;31078;48.304;11.896;2023-07-28T11:11:00;6.13;;;2.60;;
45344;SDS011;31078;48.304;11.896;2023-07-28T11:13:30;5.18;;;2.40;;
45344;SDS011;31078;48.304;11.896;2023-07-28T11:15:57;4.78;;;2.50;;
45344;SDS011;31078;48.304;11.896;2023-07-28T11:18:25;4.70;;;2.17;;
45344;SDS011;31078;48.304;11.896;2023-07-28T11:20:51;4.57;;;2.35;;
45344;SDS011;31078;48.304;11.896;2023-07-28T11:23:19;3.92;;;2.40;;
45344;SDS011;31078;48.304;11.896;2023-07-28T11:25:46;4.30;;;2.20;;
45344;SDS011;31078;48.304;11.896;2023-07-28T11:28:13;3.53;;;2.28;;
45344;SDS011;31078;48.304;11.896;2023-07-28T11:30:39;4.32;;;2.20;;
45344;SDS011;31078;48.304;11.896;2023-07-28T11:33:08;10.63;;;2.55;;
45344;SDS011;31078;48.304;11.896;2023-07-28T11:35:37;6.75;;;2.30;;
45344;SDS011;31078;48.304;11.896;2023-07-28T11:38:04;3.95;;;2.35;;
45344;SDS011;31078;48.304;11.896;2023-07-28T11:40:32;4.38;;;2.17;;
45344;SDS011;31078;48.304;11.896;2023-07-28T11:42:59;2.80;;;2.05;;
45344;SDS011;31078;48.304;11.896;2023-07-28T11:45:26;4.60;;;2.30;;
45344;SDS011;31078;48.304;11.896;2023-07-28T11:47:56;5.72;;;2.50;;
45344;SDS011;31078;48.304;11.896;2023-07-28T11:50:24;4.63;;;1.98;;
45344;SDS011;31078;48.304;11.896;2023-07-28T11:52:51;2.83;;;1.90;;
45344;SDS011;31078;48.304;11.896;2023-07-28T11:55:18;3.65;;;2.33;;
45344;SDS011;31078;48.304;11.896;2023-07-28T11:57:47;3.38;;;1.90;;
45344;SDS011;31078;48.304;11.896;2023-07-28T12:00:14;6.28;;;2.42;;
45344;SDS011;31078;48.304;11.896;2023-07-28T12:02:42;4.13;;;2.55;;
45344;SDS011;31078;48.304;11.896;2023-07-28T12:05:11;4.95;;;2.60;;
45344;SDS011;31078;48.304;11.896;2023-07-28T12:07:38;4.07;;;2.63;;
45344;SDS011;31078;48.304;11.896;2023-07-28T12:10:06;4.28;;;2.55;;
45344;SDS011;31078;48.304;11.896;2023-07-28T12:12:39;5.63;;;3.00;;
45344;SDS011;31078;48.304;11.896;2023-07-28T12:18:09;5.70;;;2.80;;
45344;SDS011;31078;48.304;11.896;2023-07-28T12:20:38;3.10;;;2.20;;
45344;SDS011;31078;48.304;11.896;2023-07-28T12:23:05;4.53;;;2.45;;
45344;SDS011;31078;48.304;11.896;2023-07-28T12:25:33;5.80;;;2.90;;
45344;SDS011;31078;48.304;11.896;2023-07-28T12:28:01;4.25;;;2.40;;
45344;SDS011;31078;48.304;11.896;2023-07-28T12:30:29;4.03;;;2.65;;
45344;SDS011;31078;48.304;11.896;2023-07-28T12:32:56;5.07;;;2.65;;
45344;SDS011;31078;48.304;11.896;2023-07-28T12:35:23;8.50;;;2.80;;
45344;SDS011;31078;48.304;11.896;2023-07-28T12:37:50;3.70;;;2.40;;
45344;SDS011;31078;48.304;11.896;2023-07-28T12:40:17;3.63;;;2.30;;
45344;SDS011;31078;48.304;11.896;2023-07-28T12:42:45;3.70;;;2.80;;
45344;SDS011;31078;48.304;11.896;2023-07-28T12:45:12;6.32;;;2.40;;
45344;SDS011;31078;48.304;11.896;2023-07-28T12:47:40;5.68;;;2.25;;
45344;SDS011;31078;48.304;11.896;2023-07-28T12:50:07;5.75;;;2.85;;
45344;SDS011;31078;48.304;11.896;2023-07-28T12:52:35;4.07;;;2.88;;
45344;SDS011;31078;48.304;11.896;2023-07-28T12:55:01;6.32;;;2.67;;
45344;SDS011;31078;48.304;11.896;2023-07-28T12:57:28;3.45;;;2.50;;
45344;SDS011;31078;48.304;11.896;2023-07-28T12:59:54;4.18;;;2.65;;
45344;SDS011;31078;48.304;11.896;2023-07-28T13:02:21;5.25;;;2.65;;
45344;SDS011;31078;48.304;11.896;2023-07-28T13:04:49;4.93;;;2.67;;
45344;SDS011;31078;48.304;11.896;2023-07-28T13:07:15;5.25;;;3.00;;
45344;SDS011;31078;48.304;11.896;2023-07-28T13:09:43;5.55;;;2.47;;
45344;SDS011;31078;48.304;11.896;2023-07-28T13:12:09;5.80;;;2.38;;
45344;SDS011;31078;48.304;11.896;2023-07-28T13:14:36;3.42;;;2.40;;
45344;SDS011;31078;48.304;11.896;2023-07-28T13:17:02;4.20;;;2.72;;
45344;SDS011;31078;48.304;11.896;2023-07-28T13:19:29;3.92;;;2.30;;
45344;SDS011;31078;48.304;11.896;2023-07-28T13:21:57;3.47;;;2.22;;
45344;SDS011;31078;48.304;11.896;2023-07-28T13:24:23;6.30;;;2.63;;
45344;SDS011;31078;48.304;11.896;2023-07-28T13:26:50;3.22;;;2.50;;
45344;SDS011;31078;48.304;11.896;2023-07-28T13:29:16;5.38;;;2.70;;
45344;SDS011;31078;48.304;11.896;2023-07-28T13:31:43;7.15;;;2.75;;
45344;SDS011;31078;48.304;11.896;2023-07-28T13:34:09;3.88;;;2.55;;
45344;SDS011;31078;48.304;11.896;2023-07-28T13:36:36;6.75;;;2.50;;
45344;SDS011;31078;48.304;11.896;2023-07-28T13:39:04;4.82;;;2.58;;
45344;SDS011;31078;48.304;11.896;2023-07-28T13:41:31;6.70;;;2.65;;
45344;SDS011;31078;48.304;11.896;2023-07-28T13:43:57;3.67;;;2.70;;
45344;SDS011;31078;48.304;11.896;2023-07-28T13:46:24;4.35;;;2.28;;
45344;SDS011;31078;48.304;11.896;2023-07-28T13:48:50;3.67;;;2.47;;
45344;SDS011;31078;48.304;11.896;2023-07-28T13:51:17;3.38;;;2.47;;
45344;SDS011;31078;48.304;11.896;2023-07-28T13:53:43;5.97;;;2.63;;
45344;SDS011;31078;48.304;11.896;2023-07-28T13:56:11;5.53;;;2.70;;
45344;SDS011;31078;48.304;11.896;2023-07-28T13:58:37;4.70;;;2.58;;
45344;SDS011;31078;48.304;11.896;2023-07-28T14:01:04;5.20;;;2.90;;
45344;SDS011;31078;48.304;11.896;2023-07-28T14:03:30;4.13;;;2.80;;
45344;SDS011;31078;48.304;11.896;2023-07-28T14:05:57;7.65;;;2.92;;
45344;SDS011;31078;48.304;11.896;2023-07-28T14:08:23;5.18;;;3.08;;
45344;SDS011;31078;48.304;11.896;2023-07-28T14:10:51;4.20;;;2.88;;
45344;SDS011;31078;48.304;11.896;2023-07-28T14:13:19;4.03;;;2.95;;
45344;SDS011;31078;48.304;11.896;2023-07-28T14:15:46;4.53;;;2.58;;
45344;SDS011;31078;48.304;11.896;2023-07-28T14:18:13;5.07;;;3.08;;
45344;SDS011;31078;48.304;11.896;2023-07-28T14:20:39;4.00;;;2.60;;
45344;SDS011;31078;48.304;11.896;2023-07-28T14:23:20;7.22;;;3.10;;
45344;SDS011;31078;48.304;11.896;2023-07-28T14:25:47;5.00;;;2.75;;
45344;SDS011;31078;48.304;11.896;2023-07-28T14:28:14;3.63;;;2.55;;
45344;SDS011;31078;48.304;11.896;2023-07-28T14:30:42;5.55;;;2.90;;
45344;SDS011;31078;48.304;11.896;2023-07-28T14:33:11;6.32;;;3.58;;
45344;SDS011;31078;48.304;11.896;2023-07-28T14:35:38;4.45;;;2.80;;
45344;SDS011;31078;48.304;11.896;2023-07-28T14:38:04;3.90;;;2.70;;
45344;SDS011;31078;48.304;11.896;2023-07-28T14:40:31;3.63;;;2.53;;